Time,TemperatureF,DewpointF,PressureIn,WindDirection,WindDirectionDegrees,WindSpeedMPH,WindSpeedGustMPH,Humidity,HourlyPrecipIn,Conditions,Clouds,dailyrainin,SoftwareType,DateUTC
2013-08-11 00:01:00,65.0,64.0,30.13,WSW,240,0.0,1.0,95,0.00,,,0.00,,2013-08-11 04:01:00,
2013-08-11 00:12:00,64.0,62.0,30.14,WSW,240,0.0,0.0,94,0.00,,,0.00,,2013-08-11 04:12:00,
2013-08-11 00:22:00,64.0,63.0,30.14,WSW,240,0.0,0.0,95,0.00,,,0.00,,2013-08-11 04:22:00,
2013-08-11 00:32:00,65.0,64.0,30.14,WSW,240,0.0,1.0,95,0.00,,,0.00,,2013-08-11 04:32:00,
2013-08-11 00:43:00,65.0,63.0,30.14,WSW,240,0.0,1.0,93,0.00,,,0.00,,2013-08-11 04:43:00,
2013-08-11 00:53:00,64.0,62.0,30.14,WSW,240,0.0,0.0,93,0.00,,,0.00,,2013-08-11 04:53:00,
2013-08-11 01:02:00,64.0,62.0,30.14,SW,228,0.0,1.0,93,0.00,,,0.00,,2013-08-11 05:02:00,
2013-08-11 01:19:00,63.0,62.0,30.14,SW,228,0.0,0.0,95,0.00,,,0.00,,2013-08-11 05:19:00,
2013-08-11 01:25:00,63.0,62.0,30.14,SW,228,0.0,0.0,95,0.00,,,0.00,,2013-08-11 05:25:00,
2013-08-11 01:36:00,63.0,62.0,30.14,SW,228,0.0,0.0,95,0.00,,,0.00,,2013-08-11 05:36:00,
2013-08-11 01:46:00,63.0,62.0,30.14,SW,229,0.0,0.0,95,0.00,,,0.00,,2013-08-11 05:46:00,
2013-08-11 01:54:00,63.0,62.0,30.14,SW,228,0.0,0.0,96,0.00,,,0.00,,2013-08-11 05:54:00,
2013-08-11 02:17:00,62.0,61.0,30.13,SW,228,0.0,0.0,96,0.00,,,0.00,,2013-08-11 06:17:00,
2013-08-11 02:26:00,62.0,61.0,30.13,SW,228,0.0,0.0,96,0.00,,,0.00,,2013-08-11 06:26:00,
2013-08-11 02:36:00,62.0,61.0,30.13,SW,229,0.0,0.0,97,0.00,,,0.00,,2013-08-11 06:36:00,
2013-08-11 02:48:00,62.0,61.0,30.13,SW,229,0.0,0.0,97,0.00,,,0.00,,2013-08-11 06:48:00,
2013-08-11 02:55:00,62.0,61.0,30.13,SW,229,0.0,0.0,97,0.00,,,0.00,,2013-08-11 06:55:00,
2013-08-11 03:06:00,62.0,61.0,30.13,SW,229,0.0,0.0,97,0.00,,,0.00,,2013-08-11 07:06:00,
2013-08-11 03:24:00,62.0,61.0,30.13,SW,229,0.0,0.0,98,0.00,,,0.00,,2013-08-11 07:24:00,
2013-08-11 03:54:00,61.0,60.0,30.13,SW,229,0.0,1.0,97,0.00,,,0.00,,2013-08-11 07:54:00,
2013-08-11 04:09:00,61.0,60.0,30.12,SW,229,0.0,0.0,97,0.00,,,0.00,,2013-08-11 08:09:00,
2013-08-11 04:26:00,60.0,59.0,30.13,SW,229,0.0,0.0,97,0.00,,,0.00,,2013-08-11 08:26:00,
2013-08-11 04:35:00,60.0,59.0,30.13,SW,229,0.0,0.0,98,0.00,,,0.00,,2013-08-11 08:35:00,
2013-08-11 04:57:00,60.0,59.0,30.13,SW,229,0.0,0.0,98,0.00,,,0.00,,2013-08-11 08:57:00,
2013-08-11 05:08:00,60.0,59.0,30.13,SW,228,0.0,0.0,98,0.00,,,0.00,,2013-08-11 09:08:00,
2013-08-11 05:16:00,60.0,59.0,30.13,SW,229,0.0,0.0,98,0.00,,,0.00,,2013-08-11 09:16:00,
2013-08-11 05:28:00,60.0,59.0,30.13,SW,228,0.0,0.0,98,0.00,,,0.00,,2013-08-11 09:28:00,
2013-08-11 05:35:00,60.0,59.0,30.13,SW,228,0.0,0.0,98,0.00,,,0.00,,2013-08-11 09:35:00,
2013-08-11 05:43:00,60.0,59.0,30.13,SW,229,0.0,0.0,98,0.00,,,0.00,,2013-08-11 09:43:00,
2013-08-11 06:05:00,60.0,59.0,30.13,SW,228,0.0,0.0,98,0.00,,,0.00,,2013-08-11 10:05:00,
2013-08-11 06:15:00,60.0,59.0,30.14,SW,229,0.0,0.0,98,0.00,,,0.00,,2013-08-11 10:15:00,
2013-08-11 06:45:00,60.0,59.0,30.14,SW,228,0.0,0.0,98,0.00,,,0.00,,2013-08-11 10:45:00,
2013-08-11 06:55:00,59.0,58.0,30.14,SW,229,0.0,0.0,98,0.00,,,0.00,,2013-08-11 10:55:00,
2013-08-11 07:06:00,59.0,58.0,30.14,SW,229,0.0,1.0,98,0.00,,,0.00,,2013-08-11 11:06:00,
2013-08-11 07:15:00,59.0,58.0,30.14,SW,229,0.0,0.0,98,0.00,,,0.00,,2013-08-11 11:15:00,
2013-08-11 07:24:00,59.0,58.0,30.14,SW,229,0.0,0.0,98,0.00,,,0.00,,2013-08-11 11:24:00,
2013-08-11 07:47:00,59.0,58.0,30.14,SW,229,0.0,0.0,98,0.00,,,0.00,,2013-08-11 11:47:00,
2013-08-11 07:56:00,59.0,59.0,30.14,SW,229,0.0,0.0,99,0.00,,,0.00,,2013-08-11 11:56:00,
2013-08-11 08:06:00,60.0,60.0,30.13,SW,229,0.0,0.0,99,0.00,,,0.00,,2013-08-11 12:06:00,
2013-08-11 08:29:00,61.0,61.0,30.13,SW,229,0.0,0.0,99,0.00,,,0.00,,2013-08-11 12:29:00,
2013-08-11 08:36:00,62.0,62.0,30.13,SW,229,0.0,0.0,99,0.00,,,0.00,,2013-08-11 12:36:00,
2013-08-11 08:45:00,62.0,62.0,30.13,SW,229,0.0,0.0,99,0.00,,,0.00,,2013-08-11 12:45:00,
2013-08-11 08:54:00,64.0,64.0,30.13,SW,229,0.0,0.0,99,0.00,,,0.00,,2013-08-11 12:54:00,
2013-08-11 09:06:00,65.0,65.0,30.14,SW,229,0.0,1.0,99,0.00,,,0.00,,2013-08-11 13:06:00,
2013-08-11 09:16:00,65.0,65.0,30.14,SW,229,0.0,1.0,99,0.00,,,0.00,,2013-08-11 13:16:00,
2013-08-11 09:25:00,66.0,66.0,30.15,WSW,247,0.0,1.0,99,0.00,,,0.00,,2013-08-11 13:25:00,
2013-08-11 09:39:00,66.0,66.0,30.15,WSW,247,0.0,1.0,99,0.00,,,0.00,,2013-08-11 13:39:00,
2013-08-11 09:45:00,67.0,67.0,30.15,WSW,244,0.0,0.0,99,0.00,,,0.00,,2013-08-11 13:45:00,
2013-08-11 09:55:00,68.0,68.0,30.15,WSW,248,1.0,2.0,99,0.00,,,0.00,,2013-08-11 13:55:00,
2013-08-11 10:04:00,69.0,67.0,30.15,WSW,245,0.0,1.0,94,0.00,,,0.00,,2013-08-11 14:04:00,
2013-08-11 10:17:00,69.0,67.0,30.15,WSW,249,1.0,2.0,92,0.00,,,0.00,,2013-08-11 14:17:00,
2013-08-11 10:24:00,70.0,66.0,30.15,WSW,247,0.0,2.0,88,0.00,,,0.00,,2013-08-11 14:24:00,
2013-08-11 10:34:00,70.0,66.0,30.14,WSW,247,0.0,1.0,86,0.00,,,0.00,,2013-08-11 14:34:00,
2013-08-11 10:48:00,71.0,65.0,30.14,WSW,248,1.0,1.0,82,0.00,,,0.00,,2013-08-11 14:48:00,
2013-08-11 10:56:00,71.0,65.0,30.14,WSW,249,1.0,2.0,82,0.00,,,0.00,,2013-08-11 14:56:00,
2013-08-11 11:14:00,72.0,65.0,30.15,WSW,252,1.0,3.0,79,0.00,,,0.00,,2013-08-11 15:14:00,
2013-08-11 11:24:00,73.0,66.0,30.15,West,266,1.0,3.0,78,0.00,,,0.00,,2013-08-11 15:24:00,
2013-08-11 11:38:00,73.0,66.0,30.15,West,264,1.0,2.0,78,0.00,,,0.00,,2013-08-11 15:38:00,
2013-08-11 12:09:00,75.0,65.0,30.14,WSW,255,1.0,4.0,70,0.00,,,0.00,,2013-08-11 16:09:00,
2013-08-11 12:14:00,76.0,67.0,30.14,North,10,1.0,4.0,73,0.00,,,0.00,,2013-08-11 16:14:00,
2013-08-11 12:28:00,76.0,66.0,30.13,NW,311,0.0,2.0,72,0.00,,,0.00,,2013-08-11 16:28:00,
2013-08-11 12:39:00,77.0,66.0,30.14,NW,316,2.0,4.0,70,0.00,,,0.00,,2013-08-11 16:39:00,
2013-08-11 12:46:00,77.0,67.0,30.14,NNW,340,0.0,3.0,72,0.00,,,0.00,,2013-08-11 16:46:00,
2013-08-11 12:55:00,77.0,66.0,30.14,NNW,347,0.0,1.0,69,0.00,,,0.00,,2013-08-11 16:55:00,
2013-08-11 13:08:00,77.0,66.0,30.14,NNW,330,3.0,5.0,69,0.00,,,0.00,,2013-08-11 17:08:00,
2013-08-11 13:13:00,76.0,65.0,30.14,NNE,23,0.0,5.0,70,0.00,,,0.00,,2013-08-11 17:13:00,
2013-08-11 13:25:00,77.0,64.0,30.14,NNE,15,2.0,4.0,65,0.00,,,0.00,,2013-08-11 17:25:00,
2013-08-11 13:36:00,78.0,65.0,30.14,WNW,298,1.0,4.0,64,0.00,,,0.00,,2013-08-11 17:36:00,
2013-08-11 13:45:00,77.0,65.0,30.13,WNW,302,3.0,6.0,66,0.00,,,0.00,,2013-08-11 17:45:00,
2013-08-11 13:54:00,78.0,66.0,30.13,North,355,3.0,6.0,66,0.00,,,0.00,,2013-08-11 17:54:00,
2013-08-11 14:06:00,78.0,65.0,30.13,North,358,3.0,6.0,65,0.00,,,0.00,,2013-08-11 18:06:00,
2013-08-11 14:27:00,78.0,64.0,30.13,NNW,335,4.0,8.0,62,0.00,,,0.00,,2013-08-11 18:27:00,
2013-08-11 14:38:00,78.0,64.0,30.13,NW,321,4.0,7.0,62,0.00,,,0.00,,2013-08-11 18:38:00,
2013-08-11 14:47:00,78.0,63.0,30.14,NNW,338,7.0,11.0,61,0.00,,,0.00,,2013-08-11 18:47:00,
2013-08-11 14:54:00,78.0,63.0,30.14,NW,323,4.0,7.0,61,0.00,,,0.00,,2013-08-11 18:54:00,
2013-08-11 15:08:00,78.0,63.0,30.13,North,4,4.0,8.0,60,0.00,,,0.00,,2013-08-11 19:08:00,
2013-08-11 15:16:00,78.0,64.0,30.13,NNW,343,6.0,12.0,63,0.00,,,0.00,,2013-08-11 19:16:00,
2013-08-11 15:26:00,78.0,63.0,30.13,NNW,341,6.0,10.0,60,0.00,,,0.00,,2013-08-11 19:26:00,
2013-08-11 15:49:00,79.0,65.0,30.13,North,11,4.0,9.0,62,0.00,,,0.00,,2013-08-11 19:49:00,
2013-08-11 15:56:00,79.0,64.0,30.13,NW,317,3.0,7.0,61,0.00,,,0.00,,2013-08-11 19:56:00,
2013-08-11 16:07:00,79.0,62.0,30.12,WNW,302,1.0,7.0,57,0.00,,,0.00,,2013-08-11 20:07:00,
2013-08-11 16:28:00,79.0,62.0,30.11,NNW,347,4.0,8.0,57,0.00,,,0.00,,2013-08-11 20:28:00,
2013-08-11 16:38:00,79.0,62.0,30.11,WNW,301,4.0,10.0,57,0.00,,,0.00,,2013-08-11 20:38:00,
2013-08-11 16:47:00,79.0,62.0,30.11,North,1,6.0,12.0,57,0.00,,,0.00,,2013-08-11 20:47:00,
2013-08-11 17:07:00,79.0,61.0,30.10,NW,314,2.0,6.0,55,0.00,,,0.00,,2013-08-11 21:07:00,
2013-08-11 17:13:00,79.0,61.0,30.10,NW,309,3.0,12.0,54,0.00,,,0.00,,2013-08-11 21:13:00,
2013-08-11 17:27:00,80.0,62.0,30.10,North,8,2.0,9.0,54,0.00,,,0.00,,2013-08-11 21:27:00,
2013-08-11 17:34:00,80.0,62.0,30.10,NNW,328,4.0,8.0,55,0.00,,,0.00,,2013-08-11 21:34:00,
2013-08-11 17:46:00,80.0,62.0,30.10,NW,314,3.0,6.0,54,0.00,,,0.00,,2013-08-11 21:46:00,
2013-08-11 17:54:00,80.0,63.0,30.09,NNW,345,3.0,6.0,56,0.00,,,0.00,,2013-08-11 21:54:00,
2013-08-11 18:04:00,80.0,62.0,30.09,WNW,302,2.0,6.0,54,0.00,,,0.00,,2013-08-11 22:04:00,
2013-08-11 18:15:00,80.0,62.0,30.10,NNW,334,2.0,4.0,55,0.00,,,0.00,,2013-08-11 22:15:00,
2013-08-11 18:25:00,80.0,61.0,30.09,WSW,253,1.0,3.0,53,0.00,,,0.00,,2013-08-11 22:25:00,
2013-08-11 18:35:00,81.0,63.0,30.09,NNE,15,1.0,4.0,55,0.00,,,0.00,,2013-08-11 22:35:00,
2013-08-11 18:46:00,80.0,61.0,30.09,NW,309,2.0,4.0,52,0.00,,,0.00,,2013-08-11 22:46:00,
2013-08-11 18:55:00,79.0,61.0,30.09,NW,317,3.0,6.0,54,0.00,,,0.00,,2013-08-11 22:55:00,
2013-08-11 19:16:00,78.0,63.0,30.09,NW,313,1.0,3.0,60,0.00,,,0.00,,2013-08-11 23:16:00,
2013-08-11 19:35:00,79.0,64.0,30.09,North,2,1.0,3.0,61,0.00,,,0.00,,2013-08-11 23:35:00,
2013-08-11 19:48:00,78.0,63.0,30.09,WNW,303,0.0,5.0,60,0.00,,,0.00,,2013-08-11 23:48:00,
2013-08-11 19:56:00,78.0,65.0,30.09,NW,304,0.0,1.0,65,0.00,,,0.00,,2013-08-11 23:56:00,
2013-08-11 20:05:00,78.0,65.0,30.09,WNW,303,0.0,0.0,64,0.00,,,0.00,,2013-08-12 00:05:00,
2013-08-11 20:17:00,79.0,64.0,30.09,NW,304,0.0,0.0,61,0.00,,,0.00,,2013-08-12 00:17:00,
2013-08-11 20:37:00,77.0,68.0,30.09,NW,304,0.0,0.0,74,0.00,,,0.00,,2013-08-12 00:37:00,
2013-08-11 20:48:00,74.0,65.0,30.09,SW,214,0.0,1.0,74,0.00,,,0.00,,2013-08-12 00:48:00,
2013-08-11 20:54:00,74.0,66.0,30.09,SW,214,0.0,0.0,77,0.00,,,0.00,,2013-08-12 00:54:00,
2013-08-11 21:07:00,73.0,66.0,30.08,SW,214,0.0,0.0,79,0.00,,,0.00,,2013-08-12 01:07:00,
2013-08-11 21:14:00,72.0,66.0,30.08,SW,214,0.0,0.0,82,0.00,,,0.00,,2013-08-12 01:14:00,
2013-08-11 21:25:00,70.0,66.0,30.08,SW,214,0.0,0.0,87,0.00,,,0.00,,2013-08-12 01:25:00,
2013-08-11 21:37:00,69.0,65.0,30.09,SW,214,0.0,0.0,87,0.00,,,0.00,,2013-08-12 01:37:00,
2013-08-11 21:55:00,68.0,65.0,30.09,SW,214,0.0,0.0,90,0.00,,,0.00,,2013-08-12 01:55:00,
2013-08-11 22:08:00,68.0,65.0,30.09,SW,214,0.0,0.0,90,0.00,,,0.00,,2013-08-12 02:08:00,
2013-08-11 22:14:00,68.0,65.0,30.09,SW,214,0.0,0.0,91,0.00,,,0.00,,2013-08-12 02:14:00,
2013-08-11 22:36:00,68.0,66.0,30.10,SW,214,0.0,0.0,93,0.00,,,0.00,,2013-08-12 02:36:00,
2013-08-11 22:55:00,68.0,66.0,30.11,SW,214,0.0,0.0,93,0.00,,,0.00,,2013-08-12 02:55:00,
2013-08-11 23:15:00,68.0,65.0,30.10,SW,217,0.0,1.0,91,0.00,,,0.00,,2013-08-12 03:15:00,
2013-08-11 23:25:00,68.0,66.0,30.11,SW,217,0.0,1.0,92,0.00,,,0.00,,2013-08-12 03:25:00,
2013-08-11 23:38:00,68.0,66.0,30.10,SW,217,0.0,0.0,92,0.00,,,0.00,,2013-08-12 03:38:00,
2013-08-11 23:45:00,68.0,66.0,30.10,SW,217,0.0,0.0,93,0.00,,,0.00,,2013-08-12 03:45:00,
2013-08-11 23:57:00,68.0,66.0,30.10,SW,219,0.0,1.0,93,0.00,,,0.00,,2013-08-12 03:57:00,